createdAt,value
2019-01-29T00:00:26.100Z,0.00
2019-01-29T00:01:26.057Z,0.00
2019-01-29T00:02:26.061Z,0.00
2019-01-29T00:03:26.008Z,0.00
2019-01-29T00:04:26.007Z,0.00
2019-01-29T00:05:25.982Z,0.00
2019-01-29T00:06:25.996Z,0.00
2019-01-29T00:07:25.982Z,0.00
2019-01-29T00:08:26.037Z,0.00
2019-01-29T00:09:25.974Z,0.00
2019-01-29T00:10:25.922Z,0.00
2019-01-29T00:11:25.981Z,0.00
2019-01-29T00:12:25.996Z,0.00
2019-01-29T00:13:25.929Z,0.00
2019-01-29T00:14:25.878Z,0.00
2019-01-29T00:15:25.894Z,0.00
2019-01-29T00:16:25.927Z,0.00
2019-01-29T00:17:25.862Z,0.00
2019-01-29T00:18:25.918Z,0.00
2019-01-29T00:19:25.862Z,0.00
2019-01-29T00:20:25.880Z,0.00
2019-01-29T00:21:25.803Z,0.00
2019-01-29T00:22:33.209Z,0.00
2019-01-29T00:23:25.815Z,0.00
2019-01-29T00:24:25.896Z,0.00
2019-01-29T00:25:25.803Z,0.00
2019-01-29T00:26:25.771Z,0.00
2019-01-29T00:27:25.731Z,0.00
2019-01-29T00:28:25.754Z,0.00
2019-01-29T00:29:25.756Z,0.00
2019-01-29T00:30:25.706Z,0.00
2019-01-29T00:31:25.688Z,0.00
2019-01-29T00:32:25.661Z,0.00
2019-01-29T00:33:25.649Z,0.00
2019-01-29T00:34:25.682Z,0.00
2019-01-29T00:35:25.662Z,0.00
2019-01-29T00:36:25.659Z,0.00
2019-01-29T00:37:25.648Z,0.00
2019-01-29T00:38:25.638Z,0.00
2019-01-29T00:39:25.619Z,0.00
2019-01-29T00:40:25.598Z,0.00
2019-01-29T00:41:25.594Z,0.00
2019-01-29T00:42:25.548Z,0.00
2019-01-29T00:43:25.664Z,0.00
2019-01-29T00:44:25.583Z,0.00
2019-01-29T00:45:25.545Z,0.00
2019-01-29T00:46:25.520Z,0.00
2019-01-29T00:47:25.470Z,0.00
2019-01-29T00:48:25.461Z,0.00
2019-01-29T00:49:25.458Z,0.00
2019-01-29T00:50:25.487Z,0.00
2019-01-29T00:51:25.476Z,0.00
2019-01-29T00:52:25.458Z,0.00
2019-01-29T00:53:25.424Z,0.00
2019-01-29T00:54:25.432Z,0.00
2019-01-29T00:55:25.443Z,0.00
2019-01-29T00:56:25.386Z,0.00
2019-01-29T00:57:25.394Z,0.00
2019-01-29T00:58:25.390Z,0.00
2019-01-29T00:59:25.363Z,0.00
2019-01-29T01:00:25.345Z,0.00
2019-01-29T01:01:25.323Z,0.00
2019-01-29T01:02:25.319Z,0.00
2019-01-29T01:03:25.298Z,0.00
2019-01-29T01:04:25.274Z,0.00
2019-01-29T01:05:25.358Z,0.00
2019-01-29T01:06:25.378Z,0.00
2019-01-29T01:07:25.283Z,0.00
2019-01-29T01:08:25.299Z,0.00
2019-01-29T01:09:25.248Z,0.00
2019-01-29T01:10:25.213Z,0.00
2019-01-29T01:11:25.260Z,0.00
2019-01-29T01:12:25.240Z,0.00
2019-01-29T01:13:25.188Z,0.00
2019-01-29T01:14:25.211Z,0.00
2019-01-29T01:15:25.147Z,0.00
2019-01-29T01:16:25.210Z,0.00
2019-01-29T01:17:25.198Z,0.00
2019-01-29T01:18:25.141Z,0.00
2019-01-29T01:19:25.150Z,0.00
2019-01-29T01:20:25.081Z,0.00
2019-01-29T01:21:25.064Z,0.00
2019-01-29T01:22:25.091Z,0.00
2019-01-29T01:23:25.096Z,0.00
2019-01-29T01:24:25.062Z,0.00
2019-01-29T01:25:25.075Z,0.00
2019-01-29T01:26:25.038Z,0.00
2019-01-29T01:27:24.998Z,0.00
2019-01-29T01:28:25.026Z,0.00
2019-01-29T01:29:25.110Z,0.00
2019-01-29T01:30:24.968Z,0.00
2019-01-29T01:31:24.979Z,0.00
2019-01-29T01:32:24.935Z,0.00
2019-01-29T01:33:24.959Z,0.00
2019-01-29T01:34:24.948Z,0.00
2019-01-29T01:35:24.916Z,0.00
2019-01-29T01:36:24.879Z,0.00
2019-01-29T01:37:24.894Z,0.00
2019-01-29T01:38:24.890Z,0.00
2019-01-29T01:39:24.840Z,0.00
2019-01-29T01:40:24.871Z,0.00
2019-01-29T01:41:24.840Z,0.00
2019-01-29T01:42:24.804Z,0.00
2019-01-29T01:43:24.803Z,0.00
2019-01-29T01:44:24.804Z,0.00
2019-01-29T01:45:24.829Z,0.00
2019-01-29T01:46:24.807Z,0.00
2019-01-29T01:47:24.753Z,0.00
2019-01-29T01:48:24.746Z,0.00
2019-01-29T01:49:24.725Z,0.00
2019-01-29T01:50:24.738Z,0.00
2019-01-29T01:51:24.721Z,0.00
2019-01-29T01:52:24.755Z,0.00
2019-01-29T01:53:24.709Z,0.00
2019-01-29T01:54:24.682Z,0.00
2019-01-29T01:55:24.739Z,0.00
2019-01-29T01:56:24.664Z,0.00
2019-01-29T01:57:24.650Z,0.00
2019-01-29T01:58:24.604Z,0.00
2019-01-29T01:59:24.641Z,0.00
2019-01-29T02:00:24.597Z,0.00
2019-01-29T02:01:24.670Z,0.00
2019-01-29T02:02:24.586Z,0.00
2019-01-29T02:03:24.546Z,0.00
2019-01-29T02:04:24.606Z,0.00
2019-01-29T02:05:24.555Z,0.00
2019-01-29T02:06:24.516Z,0.00
2019-01-29T02:07:24.511Z,0.00
2019-01-29T02:08:24.545Z,0.00
2019-01-29T02:09:24.508Z,0.00
2019-01-29T02:10:24.467Z,0.00
2019-01-29T02:11:24.457Z,0.00
2019-01-29T02:12:25.626Z,0.00
2019-01-29T02:13:24.487Z,0.00
2019-01-29T02:14:24.487Z,0.00
2019-01-29T02:15:24.418Z,0.00
2019-01-29T02:16:24.456Z,0.00
2019-01-29T02:17:24.414Z,0.00
2019-01-29T02:18:24.427Z,0.00
2019-01-29T02:19:24.398Z,0.00
2019-01-29T02:20:24.430Z,0.00
2019-01-29T02:21:24.384Z,0.00
2019-01-29T02:22:24.332Z,0.00
2019-01-29T02:23:24.360Z,0.00
2019-01-29T02:24:24.351Z,0.00
2019-01-29T02:25:24.297Z,0.00
2019-01-29T02:26:24.270Z,0.00
2019-01-29T02:27:24.342Z,0.00
2019-01-29T02:28:24.327Z,0.00
2019-01-29T02:29:24.282Z,0.00
2019-01-29T02:30:24.285Z,0.00
2019-01-29T02:31:24.248Z,0.00
2019-01-29T02:32:24.256Z,0.00
2019-01-29T02:33:25.220Z,0.00
2019-01-29T02:34:24.226Z,0.00
2019-01-29T02:35:24.201Z,0.00
2019-01-29T02:36:24.167Z,0.00
2019-01-29T02:37:24.148Z,0.00
2019-01-29T02:38:24.169Z,0.00
2019-01-29T02:39:24.156Z,0.00
2019-01-29T02:40:24.219Z,0.00
2019-01-29T02:41:24.156Z,0.00
2019-01-29T02:42:24.125Z,0.00
2019-01-29T02:43:24.132Z,0.00
2019-01-29T02:44:24.077Z,0.00
2019-01-29T02:45:24.100Z,0.00
2019-01-29T02:46:24.091Z,0.00
2019-01-29T02:47:24.072Z,0.00
2019-01-29T02:48:24.060Z,0.00
2019-01-29T02:49:24.036Z,0.00
2019-01-29T02:50:24.158Z,0.00
2019-01-29T02:51:24.099Z,0.00
2019-01-29T02:52:23.989Z,0.00
2019-01-29T02:53:23.981Z,0.00
2019-01-29T02:54:23.968Z,0.00
2019-01-29T02:55:23.949Z,0.00
2019-01-29T02:56:23.938Z,0.00
2019-01-29T03:13:46.642Z,0.00
2019-01-29T03:14:46.333Z,0.00
2019-01-29T03:15:46.306Z,0.00
2019-01-29T03:16:46.298Z,0.00
2019-01-29T03:17:46.764Z,0.00
2019-01-29T03:18:46.207Z,0.00
2019-01-29T03:19:46.218Z,0.00
2019-01-29T03:20:46.215Z,0.00
2019-01-29T03:21:46.158Z,0.00
2019-01-29T03:22:46.212Z,0.00
2019-01-29T03:23:46.149Z,0.00
2019-01-29T03:24:46.252Z,0.00
2019-01-29T03:25:46.113Z,0.00
2019-01-29T03:26:46.114Z,0.00
2019-01-29T03:27:46.125Z,0.00
2019-01-29T03:28:46.082Z,0.00
2019-01-29T03:29:46.087Z,0.00
2019-01-29T03:30:46.085Z,0.00
2019-01-29T03:31:46.057Z,0.00
2019-01-29T03:32:46.021Z,0.00
2019-01-29T03:33:55.879Z,0.00
2019-01-29T03:35:50.956Z,0.00
2019-01-29T03:36:50.495Z,0.00
2019-01-29T03:37:50.507Z,0.00
2019-01-29T03:38:50.839Z,0.00
2019-01-29T03:39:50.412Z,0.00
2019-01-29T03:40:50.456Z,0.00
2019-01-29T03:41:50.403Z,0.00
2019-01-29T03:42:50.406Z,0.00
2019-01-29T03:43:50.409Z,0.00
2019-01-29T03:44:50.375Z,0.00
2019-01-29T03:45:50.340Z,0.00
2019-01-29T03:46:50.330Z,0.00
2019-01-29T03:47:50.303Z,0.00
2019-01-29T03:48:50.309Z,0.00
2019-01-29T03:49:50.311Z,0.00
2019-01-29T03:50:50.287Z,0.00
2019-01-29T03:51:50.265Z,0.00
2019-01-29T03:52:50.252Z,0.00
2019-01-29T03:53:50.251Z,0.00
2019-01-29T03:54:50.248Z,0.00
2019-01-29T03:55:50.200Z,0.00
2019-01-29T03:56:50.196Z,0.00
2019-01-29T03:57:50.214Z,0.00
2019-01-29T03:58:50.179Z,0.00
2019-01-29T03:59:50.179Z,0.00
2019-01-29T04:00:59.191Z,0.00
2019-01-29T04:02:55.227Z,0.00
2019-01-29T04:03:54.756Z,0.00
2019-01-29T04:04:54.756Z,0.00
2019-01-29T04:05:55.038Z,0.00
2019-01-29T04:06:54.622Z,0.00
2019-01-29T04:07:54.661Z,0.00
2019-01-29T04:08:54.638Z,0.00
2019-01-29T04:09:54.599Z,0.00
2019-01-29T04:10:54.561Z,0.00
2019-01-29T04:11:54.577Z,0.00
2019-01-29T04:12:54.587Z,0.00
2019-01-29T04:13:54.570Z,0.00
2019-01-29T04:14:54.499Z,0.00
2019-01-29T04:15:54.532Z,0.00
2019-01-29T04:16:54.498Z,0.00
2019-01-29T04:17:54.497Z,0.00
2019-01-29T04:18:54.514Z,0.00
2019-01-29T04:19:54.484Z,0.00
2019-01-29T04:20:54.428Z,0.00
2019-01-29T04:21:54.418Z,0.00
2019-01-29T04:22:54.427Z,0.00
2019-01-29T04:23:54.417Z,0.00
2019-01-29T04:24:54.372Z,0.00
2019-01-29T04:25:54.363Z,0.00
2019-01-29T04:26:54.362Z,0.00
2019-01-29T04:27:54.401Z,0.00
2019-01-29T04:28:54.369Z,0.00
2019-01-29T04:29:54.372Z,0.00
2019-01-29T04:30:54.321Z,0.00
2019-01-29T04:31:54.300Z,0.00
2019-01-29T04:32:54.353Z,0.00
2019-01-29T04:33:54.291Z,0.00
2019-01-29T04:34:54.323Z,0.00
2019-01-29T04:36:02.918Z,0.00
2019-01-29T04:37:59.722Z,0.00
2019-01-29T04:38:59.693Z,0.00
2019-01-29T04:39:59.681Z,0.00
2019-01-29T04:40:59.664Z,0.00
2019-01-29T04:41:59.661Z,0.00
2019-01-29T04:42:59.641Z,0.00
2019-01-29T04:43:59.628Z,0.00
2019-01-29T04:44:59.616Z,0.00
2019-01-29T04:45:59.610Z,0.00
2019-01-29T04:46:59.596Z,0.00
2019-01-29T04:47:59.583Z,0.00
2019-01-29T04:48:59.568Z,0.00
2019-01-29T04:49:59.554Z,0.00
2019-01-29T04:50:59.541Z,0.00
2019-01-29T04:51:59.531Z,0.00
2019-01-29T04:52:59.517Z,0.00
2019-01-29T04:53:59.508Z,0.00
2019-01-29T04:54:59.495Z,0.00
2019-01-29T04:55:59.484Z,0.00
2019-01-29T04:56:59.471Z,0.00
2019-01-29T04:57:59.461Z,0.00
2019-01-29T04:58:59.448Z,0.00
2019-01-29T04:59:59.437Z,0.00
2019-01-29T05:00:59.421Z,0.00
2019-01-29T05:01:59.415Z,0.00
2019-01-29T05:02:59.395Z,0.00
2019-01-29T05:03:59.384Z,0.00
2019-01-29T05:04:59.372Z,0.00
2019-01-29T05:05:59.361Z,0.00
2019-01-29T05:06:59.351Z,0.00
2019-01-29T05:07:59.335Z,0.00
2019-01-29T05:08:59.319Z,0.00
2019-01-29T05:09:59.319Z,0.00
2019-01-29T05:10:59.300Z,0.00
2019-01-29T05:11:59.300Z,0.00
2019-01-29T05:12:59.282Z,0.00
2019-01-29T05:13:59.262Z,0.00
2019-01-29T05:14:59.249Z,0.00
2019-01-29T05:15:59.239Z,0.00
2019-01-29T05:16:59.237Z,0.00
2019-01-29T05:17:59.216Z,0.00
2019-01-29T05:18:59.210Z,0.00
2019-01-29T05:19:59.190Z,0.00
2019-01-29T05:20:59.180Z,0.00
2019-01-29T05:21:59.170Z,0.00
2019-01-29T05:22:59.166Z,0.00
2019-01-29T05:24:06.589Z,0.00
2019-01-29T05:24:59.133Z,0.00
2019-01-29T05:25:59.115Z,0.00
2019-01-29T05:26:59.121Z,0.00
2019-01-29T05:27:59.089Z,0.00
2019-01-29T05:28:59.086Z,0.00
2019-01-29T05:29:59.067Z,0.00
2019-01-29T05:30:59.058Z,0.00
2019-01-29T05:31:59.060Z,0.00
2019-01-29T05:32:59.037Z,0.00
2019-01-29T05:33:59.025Z,0.00
2019-01-29T05:34:59.018Z,0.00
2019-01-29T05:35:59.003Z,0.00
2019-01-29T05:36:58.982Z,0.00
2019-01-29T05:37:58.975Z,0.00
2019-01-29T05:38:58.964Z,0.00
2019-01-29T05:39:58.951Z,0.00
2019-01-29T05:40:58.940Z,0.00
2019-01-29T05:41:58.927Z,0.00
2019-01-29T05:42:58.913Z,0.00
2019-01-29T05:43:58.905Z,0.00
2019-01-29T05:44:58.891Z,0.00
2019-01-29T05:45:58.883Z,0.00
2019-01-29T05:46:58.868Z,0.00
2019-01-29T05:47:58.869Z,0.00
2019-01-29T05:48:58.842Z,0.00
2019-01-29T05:49:58.825Z,0.00
2019-01-29T05:50:58.817Z,0.00
2019-01-29T05:51:58.838Z,0.00
2019-01-29T05:52:58.792Z,0.00
2019-01-29T05:53:58.780Z,0.00
2019-01-29T05:54:59.032Z,0.00
2019-01-29T05:55:58.835Z,0.00
2019-01-29T05:56:58.791Z,0.00
2019-01-29T05:57:59.797Z,0.00
2019-01-29T05:58:58.935Z,0.00
2019-01-29T05:59:58.758Z,0.00
2019-01-29T06:00:58.709Z,0.00
2019-01-29T06:01:58.829Z,0.00
2019-01-29T06:02:58.670Z,0.00
2019-01-29T06:03:58.725Z,0.00
2019-01-29T06:04:58.653Z,0.00
2019-01-29T06:05:58.643Z,0.00
2019-01-29T06:06:58.727Z,0.00
2019-01-29T06:07:58.618Z,0.00
2019-01-29T06:08:58.947Z,0.00
2019-01-29T06:09:58.684Z,0.00
2019-01-29T06:10:58.722Z,0.00
2019-01-29T06:11:58.649Z,0.00
2019-01-29T06:12:58.552Z,0.00
2019-01-29T06:13:58.536Z,0.00
2019-01-29T06:14:58.522Z,0.00
2019-01-29T06:15:58.516Z,0.00
2019-01-29T06:16:58.504Z,0.00
2019-01-29T06:17:59.203Z,0.00
2019-01-29T06:18:58.479Z,0.00
2019-01-29T06:19:58.464Z,0.00
2019-01-29T06:20:58.474Z,0.00
2019-01-29T06:21:58.450Z,0.00
2019-01-29T06:22:58.642Z,0.00
2019-01-29T06:23:58.445Z,0.00
2019-01-29T06:24:58.414Z,0.00
2019-01-29T06:25:58.395Z,0.00
2019-01-29T06:26:58.441Z,0.00
2019-01-29T06:27:58.374Z,0.00
2019-01-29T06:28:58.355Z,0.00
2019-01-29T06:29:58.349Z,0.00
2019-01-29T06:30:58.337Z,0.00
2019-01-29T06:31:58.324Z,0.00
2019-01-29T06:32:58.308Z,0.00
2019-01-29T06:33:58.301Z,0.00
2019-01-29T06:34:58.281Z,0.00
2019-01-29T06:35:58.274Z,0.00
2019-01-29T06:36:58.264Z,0.00
2019-01-29T06:37:58.255Z,0.00
2019-01-29T06:38:58.239Z,0.00
2019-01-29T06:39:58.231Z,0.00
2019-01-29T06:40:58.218Z,0.00
2019-01-29T06:41:58.200Z,0.00
2019-01-29T06:42:58.195Z,0.00
2019-01-29T06:43:58.183Z,0.00
2019-01-29T06:44:58.166Z,0.00
2019-01-29T06:45:58.158Z,0.00
2019-01-29T06:46:58.146Z,4.00
2019-01-29T06:47:58.130Z,4.00
2019-01-29T06:48:58.121Z,4.00
2019-01-29T06:49:58.109Z,0.00
2019-01-29T06:50:58.091Z,0.00
2019-01-29T06:51:58.082Z,4.00
2019-01-29T06:52:58.077Z,4.00
2019-01-29T06:53:58.057Z,4.00
2019-01-29T06:54:58.047Z,4.00
2019-01-29T06:55:58.031Z,4.00
2019-01-29T06:56:58.022Z,8.00
2019-01-29T06:57:58.007Z,4.00
2019-01-29T06:58:57.996Z,8.00
2019-01-29T06:59:57.981Z,8.00
2019-01-29T07:00:57.987Z,8.00
2019-01-29T07:01:57.982Z,12.00
2019-01-29T07:02:57.973Z,12.00
2019-01-29T07:03:57.938Z,12.00
2019-01-29T07:04:57.925Z,16.00
2019-01-29T07:05:57.913Z,20.00
2019-01-29T07:06:57.923Z,20.00
2019-01-29T07:07:57.881Z,20.00
2019-01-29T07:08:57.876Z,20.00
2019-01-29T07:09:57.863Z,24.00
2019-01-29T07:10:57.854Z,28.00
2019-01-29T07:11:57.848Z,28.00
2019-01-29T07:12:57.840Z,28.00
2019-01-29T07:13:57.829Z,36.00
2019-01-29T07:14:57.798Z,36.00
2019-01-29T07:15:57.807Z,40.00
2019-01-29T07:16:57.777Z,40.00
2019-01-29T07:17:57.775Z,40.00
2019-01-29T07:18:57.762Z,44.00
2019-01-29T07:19:57.737Z,44.00
2019-01-29T07:20:57.747Z,48.00
2019-01-29T07:21:57.807Z,52.00
2019-01-29T07:22:57.798Z,56.00
2019-01-29T07:23:57.704Z,56.00
2019-01-29T07:24:57.681Z,60.00
2019-01-29T07:25:57.677Z,60.00
2019-01-29T07:26:57.667Z,64.00
2019-01-29T07:27:57.656Z,68.00
2019-01-29T07:28:57.677Z,68.00
2019-01-29T07:29:57.623Z,72.00
2019-01-29T07:30:57.605Z,64.00
2019-01-29T07:32:00.000Z,64.00
2019-01-29T07:32:57.582Z,68.00
2019-01-29T07:33:57.574Z,68.00
2019-01-29T07:34:57.558Z,72.00
2019-01-29T07:35:57.588Z,72.00
2019-01-29T07:36:57.537Z,76.00
2019-01-29T07:37:57.537Z,76.00
2019-01-29T07:38:57.515Z,80.00
2019-01-29T07:39:57.499Z,84.00
2019-01-29T07:40:57.495Z,88.00
2019-01-29T07:41:57.482Z,92.00
2019-01-29T07:42:57.465Z,96.00
2019-01-29T07:43:57.460Z,100.00
2019-01-29T07:44:57.446Z,104.00
2019-01-29T07:45:57.458Z,104.00
2019-01-29T07:46:57.415Z,112.00
2019-01-29T07:47:57.417Z,112.00
2019-01-29T07:48:57.392Z,116.00
2019-01-29T07:49:57.392Z,120.00
2019-01-29T07:50:57.380Z,124.00
2019-01-29T07:51:57.362Z,128.00
2019-01-29T07:52:57.344Z,128.00
2019-01-29T07:53:57.330Z,128.00
2019-01-29T07:54:57.318Z,140.00
2019-01-29T07:55:57.312Z,144.00
2019-01-29T07:56:57.302Z,148.00
2019-01-29T07:57:57.304Z,148.00
2019-01-29T07:58:57.274Z,152.00
2019-01-29T07:59:57.259Z,152.00
2019-01-29T08:00:57.249Z,156.00
2019-01-29T08:01:57.243Z,144.00
2019-01-29T08:02:57.231Z,136.00
2019-01-29T08:03:57.400Z,136.00
2019-01-29T08:04:57.209Z,132.00
2019-01-29T08:05:57.194Z,136.00
2019-01-29T08:06:57.172Z,132.00
2019-01-29T08:07:57.166Z,132.00
2019-01-29T08:08:57.154Z,144.00
2019-01-29T08:09:57.140Z,148.00
2019-01-29T08:10:57.131Z,152.00
2019-01-29T08:11:57.114Z,160.00
2019-01-29T08:12:57.106Z,164.00
2019-01-29T08:13:57.100Z,168.00
2019-01-29T08:14:57.086Z,180.00
2019-01-29T08:15:57.109Z,188.00
2019-01-29T08:16:57.059Z,200.00
2019-01-29T08:17:57.054Z,212.00
2019-01-29T08:18:57.048Z,228.00
2019-01-29T08:19:57.020Z,244.00
2019-01-29T08:20:57.007Z,268.00
2019-01-29T08:21:57.001Z,292.00
2019-01-29T08:22:56.984Z,300.00
2019-01-29T08:23:56.975Z,324.00
2019-01-29T08:25:01.830Z,344.00
2019-01-29T08:25:56.949Z,348.00
2019-01-29T08:26:56.942Z,364.00
2019-01-29T08:27:56.936Z,376.00
2019-01-29T08:28:56.922Z,384.00
2019-01-29T08:29:56.900Z,392.00
2019-01-29T08:30:56.898Z,388.00
2019-01-29T08:31:57.341Z,384.00
2019-01-29T08:32:56.874Z,384.00
2019-01-29T08:33:56.865Z,388.00
2019-01-29T08:34:56.901Z,400.00
2019-01-29T08:35:56.833Z,416.00
2019-01-29T08:36:56.827Z,440.00
2019-01-29T08:37:56.810Z,464.00
2019-01-29T08:38:56.815Z,472.00
2019-01-29T08:39:56.789Z,484.00
2019-01-29T08:40:56.782Z,480.00
2019-01-29T08:41:56.765Z,468.00
2019-01-29T08:42:56.772Z,472.00
2019-01-29T08:43:56.748Z,484.00
2019-01-29T08:44:56.729Z,488.00
2019-01-29T08:45:56.723Z,492.00
2019-01-29T08:46:56.702Z,468.00
2019-01-29T08:47:56.697Z,456.00
2019-01-29T08:48:56.678Z,436.00
2019-01-29T08:49:56.668Z,432.00
2019-01-29T08:50:56.671Z,412.00
2019-01-29T08:51:56.645Z,396.00
2019-01-29T08:52:56.637Z,368.00
2019-01-29T08:53:56.624Z,344.00
2019-01-29T08:54:56.637Z,332.00
2019-01-29T08:55:56.603Z,320.00
2019-01-29T08:56:56.591Z,312.00
2019-01-29T08:57:56.579Z,304.00
2019-01-29T08:58:56.584Z,292.00
2019-01-29T08:59:56.556Z,292.00
2019-01-29T09:00:56.547Z,296.00
2019-01-29T09:01:56.534Z,292.00
2019-01-29T09:02:56.520Z,292.00
2019-01-29T09:03:56.508Z,288.00
2019-01-29T09:04:56.500Z,300.00
2019-01-29T09:05:56.482Z,320.00
2019-01-29T09:06:56.496Z,356.00
2019-01-29T09:07:56.467Z,364.00
2019-01-29T09:08:56.471Z,364.00
2019-01-29T09:09:56.442Z,368.00
2019-01-29T09:10:56.434Z,352.00
2019-01-29T09:11:56.419Z,336.00
2019-01-29T09:12:56.422Z,332.00
2019-01-29T09:13:56.393Z,332.00
2019-01-29T09:14:56.382Z,324.00
2019-01-29T09:15:56.389Z,328.00
2019-01-29T09:16:56.361Z,328.00
2019-01-29T09:17:56.371Z,328.00
2019-01-29T09:18:56.339Z,332.00
2019-01-29T09:19:56.327Z,356.00
2019-01-29T09:20:56.320Z,372.00
2019-01-29T09:21:56.309Z,384.00
2019-01-29T09:22:56.300Z,396.00
2019-01-29T09:23:56.291Z,420.00
2019-01-29T09:24:56.294Z,436.00
2019-01-29T09:25:56.264Z,444.00
2019-01-29T09:26:56.283Z,452.00
2019-01-29T09:27:56.275Z,468.00
2019-01-29T09:28:56.270Z,472.00
2019-01-29T09:29:56.217Z,500.00
2019-01-29T09:30:56.208Z,496.00
2019-01-29T09:31:56.201Z,504.00
2019-01-29T09:32:56.225Z,516.00
2019-01-29T09:33:56.170Z,512.00
2019-01-29T09:34:56.206Z,516.00
2019-01-29T09:35:56.152Z,516.00
2019-01-29T09:36:56.159Z,536.00
2019-01-29T09:37:56.142Z,544.00
2019-01-29T09:38:56.149Z,544.00
2019-01-29T09:39:56.158Z,564.00
2019-01-29T09:40:56.099Z,556.00
2019-01-29T09:41:56.152Z,548.00
2019-01-29T09:42:56.086Z,548.00
2019-01-29T09:43:56.063Z,540.00
2019-01-29T09:44:56.077Z,536.00
2019-01-29T09:45:56.043Z,540.00
2019-01-29T09:46:56.059Z,548.00
2019-01-29T09:47:56.019Z,548.00
2019-01-29T09:48:56.048Z,564.00
2019-01-29T09:49:55.999Z,588.00
2019-01-29T09:50:55.987Z,568.00
2019-01-29T09:51:55.993Z,556.00
2019-01-29T09:52:55.982Z,564.00
2019-01-29T09:53:55.950Z,596.00
2019-01-29T09:54:55.942Z,584.00
2019-01-29T09:55:55.933Z,580.00
2019-01-29T09:56:55.940Z,580.00
2019-01-29T09:57:55.939Z,584.00
2019-01-29T09:58:55.954Z,592.00
2019-01-29T09:59:55.889Z,596.00
2019-01-29T10:00:55.899Z,604.00
2019-01-29T10:01:55.896Z,620.00
2019-01-29T10:02:55.852Z,624.00
2019-01-29T10:03:55.844Z,644.00
2019-01-29T10:04:55.850Z,624.00
2019-01-29T10:05:55.841Z,640.00
2019-01-29T10:06:55.821Z,640.00
2019-01-29T10:07:55.806Z,652.00
2019-01-29T10:08:55.855Z,660.00
2019-01-29T10:09:55.796Z,664.00
2019-01-29T10:10:55.797Z,676.00
2019-01-29T10:11:55.794Z,652.00
2019-01-29T10:12:55.787Z,664.00
2019-01-29T10:13:55.737Z,668.00
2019-01-29T10:14:55.751Z,668.00
2019-01-29T10:15:55.741Z,680.00
2019-01-29T10:16:55.737Z,684.00
2019-01-29T10:17:55.788Z,688.00
2019-01-29T10:18:55.719Z,684.00
2019-01-29T10:20:02.532Z,692.00
2019-01-29T10:20:55.706Z,680.00
2019-01-29T10:21:55.677Z,684.00
2019-01-29T10:22:55.645Z,696.00
2019-01-29T10:23:55.684Z,704.00
2019-01-29T10:24:55.621Z,704.00
2019-01-29T10:25:55.699Z,708.00
2019-01-29T10:26:55.599Z,688.00
2019-01-29T10:27:55.618Z,688.00
2019-01-29T10:28:55.609Z,700.00
2019-01-29T10:29:55.592Z,700.00
2019-01-29T10:30:55.590Z,708.00
2019-01-29T10:31:55.571Z,720.00
2019-01-29T10:32:55.546Z,708.00
2019-01-29T10:33:55.565Z,716.00
2019-01-29T10:34:55.516Z,748.00
2019-01-29T10:35:55.566Z,772.00
2019-01-29T10:36:55.508Z,832.00
2019-01-29T10:37:55.510Z,804.00
2019-01-29T10:38:55.516Z,752.00
2019-01-29T10:39:55.474Z,732.00
2019-01-29T10:40:55.455Z,760.00
2019-01-29T10:41:55.442Z,772.00
2019-01-29T10:42:55.454Z,716.00
2019-01-29T10:43:55.433Z,740.00
2019-01-29T10:44:55.450Z,772.00
2019-01-29T10:45:55.421Z,740.00
2019-01-29T10:46:55.386Z,728.00
2019-01-29T10:47:55.380Z,692.00
2019-01-29T10:48:55.366Z,700.00
2019-01-29T10:49:55.362Z,664.00
2019-01-29T10:50:55.358Z,632.00
2019-01-29T10:51:55.341Z,612.00
2019-01-29T10:52:55.329Z,632.00
2019-01-29T10:53:55.322Z,660.00
2019-01-29T10:54:55.306Z,660.00
2019-01-29T10:55:55.323Z,652.00
2019-01-29T10:56:55.285Z,640.00
2019-01-29T10:57:55.278Z,668.00
2019-01-29T10:58:55.269Z,704.00
2019-01-29T10:59:55.271Z,748.00
2019-01-29T11:00:55.247Z,780.00
2019-01-29T11:01:55.238Z,776.00
2019-01-29T11:02:55.221Z,804.00
2019-01-29T11:03:55.214Z,820.00
2019-01-29T11:04:55.209Z,796.00
2019-01-29T11:05:55.193Z,796.00
2019-01-29T11:06:55.181Z,768.00
2019-01-29T11:07:55.184Z,780.00
2019-01-29T11:08:55.158Z,772.00
2019-01-29T11:09:55.156Z,760.00
2019-01-29T11:10:55.141Z,756.00
2019-01-29T11:11:55.137Z,760.00
2019-01-29T11:12:55.141Z,764.00
2019-01-29T11:13:55.112Z,760.00
2019-01-29T11:14:55.115Z,760.00
2019-01-29T11:15:55.100Z,764.00
2019-01-29T11:16:55.116Z,768.00
2019-01-29T11:17:55.090Z,756.00
2019-01-29T11:19:02.931Z,760.00
2019-01-29T11:19:55.056Z,772.00
2019-01-29T11:20:55.047Z,768.00
2019-01-29T11:21:55.971Z,768.00
2019-01-29T11:22:55.021Z,768.00
2019-01-29T11:23:55.019Z,764.00
2019-01-29T11:24:55.012Z,776.00
2019-01-29T11:25:56.054Z,784.00
2019-01-29T11:26:54.975Z,780.00
2019-01-29T11:27:54.983Z,772.00
2019-01-29T11:28:54.958Z,780.00
2019-01-29T11:29:54.949Z,784.00
2019-01-29T11:30:54.942Z,776.00
2019-01-29T11:31:54.939Z,756.00
2019-01-29T11:32:54.926Z,744.00
2019-01-29T11:33:54.911Z,736.00
2019-01-29T11:34:54.895Z,724.00
2019-01-29T11:35:54.887Z,720.00
2019-01-29T11:36:54.887Z,728.00
2019-01-29T11:37:54.870Z,740.00
2019-01-29T11:38:54.864Z,736.00
2019-01-29T11:39:54.846Z,736.00
2019-01-29T11:40:54.843Z,736.00
2019-01-29T11:41:54.834Z,744.00
2019-01-29T11:42:54.824Z,752.00
2019-01-29T11:43:54.810Z,756.00
2019-01-29T11:44:54.798Z,768.00
2019-01-29T11:45:54.802Z,760.00
2019-01-29T11:46:54.782Z,748.00
2019-01-29T11:47:54.770Z,736.00
2019-01-29T11:48:54.763Z,732.00
2019-01-29T11:49:54.760Z,724.00
2019-01-29T11:50:54.739Z,724.00
2019-01-29T11:51:54.732Z,740.00
2019-01-29T11:52:54.722Z,756.00
2019-01-29T11:53:54.710Z,784.00
2019-01-29T11:54:54.697Z,800.00
2019-01-29T11:55:54.691Z,852.00
2019-01-29T11:56:54.682Z,864.00
2019-01-29T11:57:54.672Z,860.00
2019-01-29T11:58:54.657Z,860.00
2019-01-29T11:59:54.655Z,824.00
2019-01-29T12:00:54.642Z,764.00
2019-01-29T12:01:54.635Z,724.00
2019-01-29T12:02:54.628Z,688.00
2019-01-29T12:03:54.616Z,672.00
2019-01-29T12:04:54.601Z,648.00
2019-01-29T12:05:54.613Z,648.00
2019-01-29T12:06:54.607Z,648.00
2019-01-29T12:07:54.604Z,632.00
2019-01-29T12:08:54.593Z,628.00
2019-01-29T12:09:56.390Z,628.00
2019-01-29T12:10:54.537Z,620.00
2019-01-29T12:11:54.536Z,608.00
2019-01-29T12:12:54.558Z,608.00
2019-01-29T12:13:54.532Z,628.00
2019-01-29T12:14:54.502Z,644.00
2019-01-29T12:15:54.496Z,652.00
2019-01-29T12:16:54.489Z,644.00
2019-01-29T12:17:54.480Z,648.00
2019-01-29T12:18:54.471Z,656.00
2019-01-29T12:19:54.455Z,648.00
2019-01-29T12:20:54.495Z,644.00
2019-01-29T12:21:54.436Z,620.00
2019-01-29T12:22:54.446Z,604.00
2019-01-29T12:23:54.445Z,588.00
2019-01-29T12:24:54.409Z,576.00
2019-01-29T12:25:54.414Z,552.00
2019-01-29T12:26:54.388Z,532.00
2019-01-29T12:27:54.377Z,524.00
2019-01-29T12:28:54.371Z,512.00
2019-01-29T12:29:54.373Z,496.00
2019-01-29T12:30:54.350Z,488.00
2019-01-29T12:31:54.335Z,504.00
2019-01-29T12:32:54.358Z,476.00
2019-01-29T12:33:54.329Z,480.00
2019-01-29T12:34:54.318Z,484.00
2019-01-29T12:35:54.296Z,488.00
2019-01-29T12:36:54.293Z,492.00
2019-01-29T12:37:54.291Z,496.00
2019-01-29T12:38:54.274Z,496.00
2019-01-29T12:39:54.274Z,496.00
2019-01-29T12:40:54.261Z,492.00
2019-01-29T12:41:54.243Z,496.00
2019-01-29T12:42:54.245Z,496.00
2019-01-29T12:43:54.229Z,504.00
2019-01-29T12:44:54.215Z,504.00
2019-01-29T12:45:54.204Z,500.00
2019-01-29T12:46:54.197Z,496.00
2019-01-29T12:47:54.192Z,484.00
2019-01-29T12:48:54.176Z,480.00
2019-01-29T12:49:54.191Z,476.00
2019-01-29T12:50:54.152Z,460.00
2019-01-29T12:51:54.146Z,452.00
2019-01-29T12:52:54.152Z,448.00
2019-01-29T12:53:54.128Z,444.00
2019-01-29T12:54:54.120Z,448.00
2019-01-29T12:55:54.111Z,448.00
2019-01-29T12:56:54.108Z,448.00
2019-01-29T12:57:54.250Z,452.00
2019-01-29T12:58:54.085Z,460.00
2019-01-29T12:59:54.068Z,468.00
2019-01-29T13:00:54.085Z,468.00
2019-01-29T13:01:54.054Z,468.00
2019-01-29T13:02:54.040Z,468.00
2019-01-29T13:03:54.241Z,468.00
2019-01-29T13:04:54.030Z,464.00
2019-01-29T13:05:54.011Z,452.00
2019-01-29T13:06:54.009Z,444.00
2019-01-29T13:07:53.997Z,436.00
2019-01-29T13:08:54.022Z,428.00
2019-01-29T13:09:53.984Z,424.00
2019-01-29T13:10:53.982Z,420.00
2019-01-29T13:11:53.958Z,412.00
2019-01-29T13:12:53.949Z,408.00
2019-01-29T13:13:53.939Z,412.00